Time;durP1;ratioP1;P1;durP2;ratioP2;P2;SDS_P1;SDS_P2;PMS_P1;PMS_P2;Temp;Humidity;BMP_temperature;BMP_pressure;BME280_temperature;BME280_humidity;BME280_pressure;Samples;Min_cycle;Max_cycle;Signal;HPM_P1;HPM_P2
2022/11/19 00:00:50;;;;;;;2.15;1.00;;;;;;;17.67;59.67;98905.03;5115026;28;20499;-69
2022/11/19 00:03:18;;;;;;;2.17;0.90;;;;;;;17.69;59.97;98901.34;5115097;28;20395;-69
2022/11/19 00:05:45;;;;;;;2.35;0.90;;;;;;;17.69;59.62;98903.16;5114733;28;20458;-69
2022/11/19 00:08:14;;;;;;;2.13;1.10;;;;;;;17.69;59.56;98898.72;5114419;28;20487;-68
2022/11/19 00:10:40;;;;;;;1.50;0.90;;;;;;;17.68;59.82;98897.00;5114496;28;20028;-69
2022/11/19 00:13:06;;;;;;;1.42;0.82;;;;;;;17.71;59.82;98904.78;5114726;28;20050;-68
2022/11/19 00:15:34;;;;;;;2.67;1.08;;;;;;;17.71;59.61;98902.13;5114741;28;20496;-70
2022/11/19 00:18:00;;;;;;;1.75;0.77;;;;;;;17.71;59.68;98896.00;5114902;28;20028;-69
2022/11/19 00:20:27;;;;;;;2.22;0.70;;;;;;;17.69;59.84;98897.88;5114096;28;20035;-70
2022/11/19 00:22:54;;;;;;;1.65;0.93;;;;;;;17.68;59.90;98897.00;5114474;28;20026;-69
2022/11/19 00:25:20;;;;;;;2.05;0.70;;;;;;;17.66;59.61;98898.91;5114828;28;20027;-69
2022/11/19 00:27:46;;;;;;;1.27;0.70;;;;;;;17.66;59.51;98904.19;5114366;28;20027;-69
2022/11/19 00:30:12;;;;;;;2.88;1.08;;;;;;;17.65;59.84;98891.94;5114673;28;20030;-69
2022/11/19 00:32:38;;;;;;;2.00;0.82;;;;;;;17.65;59.58;98891.94;5113871;28;20032;-70
2022/11/19 00:35:04;;;;;;;1.63;0.80;;;;;;;17.64;59.68;98890.22;5110197;28;20032;-69
2022/11/19 00:37:29;;;;;;;2.35;0.73;;;;;;;17.65;59.60;98891.94;5103734;28;20058;-70
2022/11/19 00:39:55;;;;;;;1.33;0.70;;;;;;;17.65;59.85;98897.19;5114121;28;20131;-69
2022/11/19 00:42:21;;;;;;;1.23;0.82;;;;;;;17.67;59.84;98894.50;5114125;28;20032;-69
2022/11/19 00:44:46;;;;;;;2.47;0.80;;;;;;;17.67;59.89;98899.75;5114306;28;20058;-70
2022/11/19 00:47:11;;;;;;;1.77;0.85;;;;;;;17.66;59.87;98898.03;5113872;28;20084;-70
2022/11/19 00:49:37;;;;;;;1.52;0.90;;;;;;;17.67;59.78;98905.88;5114295;28;20077;-69
2022/11/19 00:52:02;;;;;;;2.15;1.02;;;;;;;17.63;59.58;98904.34;5113203;28;20402;-70
2022/11/19 00:54:28;;;;;;;3.10;0.95;;;;;;;17.65;59.53;98906.88;5113892;28;20109;-70
2022/11/19 00:56:53;;;;;;;1.50;0.70;;;;;;;17.63;59.54;98898.22;5113987;28;20034;-70
2022/11/19 00:59:18;;;;;;;3.42;0.90;;;;;;;17.65;59.93;98905.13;5113844;28;20023;-69
2022/11/19 01:01:44;;;;;;;1.77;0.70;;;;;;;17.64;59.94;98906.06;5113932;28;20114;-70
2022/11/19 01:04:09;;;;;;;2.38;0.63;;;;;;;17.65;59.74;98912.16;5113619;28;20030;-69
2022/11/19 01:06:35;;;;;;;1.92;0.80;;;;;;;17.63;59.74;98899.06;5113430;28;20038;-68
2022/11/19 01:09:00;;;;;;;1.10;0.60;;;;;;;17.63;59.78;98899.06;5113716;28;20106;-69
2022/11/19 01:11:32;;;;;;;1.58;0.80;;;;;;;17.65;59.87;98896.34;5113698;28;20027;-69
2022/11/19 01:13:58;;;;;;;2.25;0.90;;;;;;;17.64;59.68;98899.91;5113138;28;20392;-70
2022/11/19 01:16:33;;;;;;;2.58;1.08;;;;;;;17.63;59.83;98901.69;5113319;28;20035;-69
2022/11/19 01:18:59;;;;;;;1.00;0.70;;;;;;;17.64;59.63;98906.06;5095317;28;20110;-70
2022/11/19 01:21:27;;;;;;;1.83;0.80;;;;;;;17.63;59.67;98899.06;5113101;28;20099;-69
2022/11/19 01:23:52;;;;;;;1.67;0.75;;;;;;;17.64;59.72;98892.88;5095355;28;20030;-69
2022/11/19 01:26:18;;;;;;;2.38;0.75;;;;;;;17.63;59.51;98899.06;5113427;28;20095;-69
2022/11/19 01:28:44;;;;;;;1.00;0.60;;;;;;;17.67;59.75;98894.50;5113265;28;20111;-70
2022/11/19 01:31:17;;;;;;;1.02;0.73;;;;;;;17.61;59.41;98884.25;5112624;28;20028;-69
2022/11/19 01:33:43;;;;;;;2.33;0.88;;;;;;;17.63;59.45;98899.06;5112393;28;20073;-69
2022/11/19 01:36:15;;;;;;;3.25;0.90;;;;;;;17.58;59.42;98896.69;5112794;28;20032;-70
2022/11/19 01:38:40;;;;;;;1.77;0.80;;;;;;;17.63;59.39;98896.41;5113013;28;20047;-70
2022/11/19 01:41:06;;;;;;;1.63;0.70;;;;;;;17.61;59.69;98900.94;5094694;28;20050;-70
2022/11/19 01:43:43;;;;;;;1.23;0.60;;;;;;;17.63;59.60;98893.78;5112743;28;20106;-69
2022/11/19 01:46:14;;;;;;;1.05;0.57;;;;;;;17.63;59.39;98893.78;5112955;28;20032;-69
2022/11/19 01:48:45;;;;;;;1.33;0.60;;;;;;;17.63;59.12;98895.59;5094602;28;20436;-70
2022/11/19 01:51:16;;;;;;;1.65;0.60;;;;;;;17.60;59.40;98901.88;5112928;28;20035;-69
2022/11/19 01:53:43;;;;;;;1.48;0.60;;;;;;;17.61;59.38;98906.22;5112612;28;20055;-70
2022/11/19 01:56:09;;;;;;;0.82;0.40;;;;;;;17.63;59.42;98908.78;5112743;28;20027;-69
2022/11/19 01:58:41;;;;;;;1.40;0.50;;;;;;;17.58;59.55;98907.22;5112684;28;20035;-69
2022/11/19 02:01:09;;;;;;;2.95;0.65;;;;;;;17.60;59.36;98908.94;5112849;28;20058;-70
2022/11/19 02:03:37;;;;;;;2.97;0.55;;;;;;;17.57;59.24;98917.88;5112353;28;20472;-70
2022/11/19 02:06:03;;;;;;;1.30;0.50;;;;;;;17.62;59.82;98913.19;5112553;28;20749;-67
2022/11/19 02:08:42;;;;;;;1.45;0.52;;;;;;;17.62;59.49;98917.63;5112564;28;20047;-69
2022/11/19 02:11:22;;;;;;;1.77;0.50;;;;;;;17.60;59.29;98915.06;5099209;28;20024;-69
2022/11/19 02:14:01;;;;;;;1.35;0.50;;;;;;;17.57;59.49;98912.59;5112336;28;20655;-68
2022/11/19 02:17:04;;;;;;;0.85;0.50;;;;;;;17.60;59.46;98922.97;5112513;28;20031;-69
2022/11/19 02:19:53;;;;;;;0.95;0.43;;;;;;;17.57;59.49;98920.50;5111897;28;20019;-69
2022/11/19 02:23:00;;;;;;;1.48;0.68;;;;;;;17.57;59.43;98923.16;5102065;28;20494;-69
2022/11/19 02:25:31;;;;;;;2.10;0.65;;;;;;;17.60;59.46;98919.47;5111960;28;20039;-70
2022/11/19 02:28:25;;;;;;;0.88;0.50;;;;;;;17.60;59.44;98919.47;5112190;28;20031;-70
2022/11/19 02:30:56;;;;;;;1.48;0.50;;;;;;;17.59;59.56;98923.94;5112125;28;20066;-70
2022/11/19 02:33:49;;;;;;;1.05;0.50;;;;;;;17.60;59.31;98925.63;5111656;28;20039;-69
2022/11/19 02:36:23;;;;;;;1.10;0.40;;;;;;;17.60;59.18;98919.47;5102121;28;20047;-70
2022/11/19 02:38:55;;;;;;;1.73;0.60;;;;;;;17.61;59.32;98921.19;5102576;28;20024;-69
2022/11/19 02:41:49;;;;;;;1.05;0.50;;;;;;;17.57;59.46;98915.22;5106075;28;20475;-69
2022/11/19 02:47:22;;;;;;;1.02;0.50;;;;;;;17.56;59.56;98918.81;5104799;28;20041;-70
2022/11/19 02:49:51;;;;;;;1.00;0.57;;;;;;;17.53;59.47;98916.34;5116382;28;20106;-69
2022/11/19 02:52:18;;;;;;;0.95;0.50;;;;;;;17.54;59.68;98920.69;5110813;28;20043;-70
2022/11/19 02:54:43;;;;;;;0.63;0.50;;;;;;;17.53;59.18;98913.72;5107741;28;20024;-69
2022/11/19 02:57:11;;;;;;;0.82;0.40;;;;;;;17.55;59.33;98917.13;5116067;28;20038;-70
2022/11/19 03:05:20;;;;;;;1.70;0.40;;;;;;;17.55;59.38;98911.84;5116358;28;20104;-70
2022/11/19 03:07:47;;;;;;;0.77;0.30;;;;;;;17.59;59.23;98908.09;5097734;28;20058;-69
2022/11/19 03:10:14;;;;;;;1.10;0.50;;;;;;;17.55;59.36;98912.69;5116010;28;20028;-70
2022/11/19 03:12:52;;;;;;;0.40;0.38;;;;;;;17.55;59.30;98912.69;5115828;28;20024;-70
2022/11/19 03:18:22;;;;;;;0.35;0.30;;;;;;;17.55;59.11;98911.84;5095643;28;20059;-69
2022/11/19 03:20:54;;;;;;;1.02;0.38;;;;;;;17.54;59.35;98902.22;5111474;28;20049;-69
2022/11/19 03:23:36;;;;;;;0.80;0.40;;;;;;;17.54;59.31;98894.31;5115857;28;20479;-70
2022/11/19 03:26:24;;;;;;;0.80;0.40;;;;;;;17.56;59.35;98892.44;5115814;28;20054;-70
2022/11/19 03:28:51;;;;;;;1.48;0.55;;;;;;;17.55;59.50;98896.88;5115959;28;20039;-70
2022/11/19 03:31:20;;;;;;;0.90;0.30;;;;;;;17.52;59.19;98890.88;5114942;28;20026;-69
2022/11/19 03:33:50;;;;;;;1.20;0.50;;;;;;;17.52;59.21;98880.34;5115505;28;20514;-69
2022/11/19 03:36:25;;;;;;;1.30;0.50;;;;;;;17.52;59.40;98885.59;5115357;28;20062;-70
2022/11/19 03:38:57;;;;;;;1.00;0.30;;;;;;;17.52;59.45;98889.13;5105549;28;20073;-69
2022/11/19 03:41:24;;;;;;;4.90;0.57;;;;;;;17.54;59.26;98889.03;5115221;28;20103;-69
2022/11/19 03:43:59;;;;;;;0.75;0.30;;;;;;;17.54;59.13;98889.03;5115452;28;20024;-70
2022/11/19 03:46:26;;;;;;;0.95;0.30;;;;;;;17.53;59.24;98887.34;5114903;28;20030;-69
2022/11/19 03:48:55;;;;;;;1.00;0.40;;;;;;;17.52;59.29;98881.19;5115710;28;20026;-69
2022/11/19 03:51:34;;;;;;;0.95;0.30;;;;;;;17.52;59.04;98886.47;5115364;28;20049;-69
2022/11/19 03:54:00;;;;;;;0.47;0.30;;;;;;;17.52;58.93;98885.59;5114870;28;20483;-70
2022/11/19 03:56:27;;;;;;;0.20;0.20;;;;;;;17.54;58.99;98886.41;5096226;28;20038;-69
2022/11/19 03:58:53;;;;;;;0.60;0.30;;;;;;;17.52;59.25;98885.59;5114960;28;20020;-69
2022/11/19 04:01:19;;;;;;;0.63;0.30;;;;;;;17.52;59.18;98890.88;5114946;28;20031;-69
2022/11/19 04:04:34;;;;;;;1.48;0.30;;;;;;;17.52;58.92;98897.03;5096607;28;20401;-69
2022/11/19 04:06:30;;;;;;;0.85;0.30;;;;;;;17.51;59.19;98894.47;5114754;28;20039;-69
2022/11/19 04:08:55;;;;;;;0.68;0.30;;;;;;;17.51;59.25;98890.06;5096491;28;20032;-69
2022/11/19 04:11:21;;;;;;;0.90;0.50;;;;;;;17.49;59.07;98891.06;5115199;27;20057;-69
2022/11/19 04:13:46;;;;;;;0.47;0.25;;;;;;;17.48;59.13;98894.66;5114167;28;20122;-69
2022/11/19 04:16:11;;;;;;;0.57;0.30;;;;;;;17.49;59.29;98902.50;5114802;28;20498;-70
2022/11/19 04:18:37;;;;;;;0.90;0.20;;;;;;;17.50;59.25;98908.59;5114645;28;20120;-69
2022/11/19 04:21:02;;;;;;;0.52;0.20;;;;;;;17.50;59.05;98892.78;5114732;28;20019;-70
2022/11/19 04:23:27;;;;;;;2.75;0.30;;;;;;;17.52;59.20;98896.16;5114876;28;20448;-70
2022/11/19 04:25:53;;;;;;;0.40;0.30;;;;;;;17.51;58.93;98899.75;5114355;28;20030;-69
2022/11/19 04:28:18;;;;;;;0.47;0.32;;;;;;;17.53;59.12;98897.88;5114314;28;20406;-70
2022/11/19 04:30:43;;;;;;;0.68;0.20;;;;;;;17.51;58.90;98902.38;5114505;28;20026;-69
2022/11/19 04:33:09;;;;;;;0.45;0.20;;;;;;;17.50;59.05;98909.47;5095992;28;20387;-69
2022/11/19 04:35:34;;;;;;;0.38;0.30;;;;;;;17.50;59.26;98898.03;5114700;28;20055;-69
2022/11/19 04:38:00;;;;;;;0.32;0.30;;;;;;;17.51;59.27;98905.00;5114376;28;20030;-70
2022/11/19 04:40:25;;;;;;;0.93;0.47;;;;;;;17.52;59.08;98904.06;5114508;28;20065;-69
2022/11/19 04:42:50;;;;;;;0.95;0.30;;;;;;;17.49;59.26;98902.50;5113986;28;20530;-70
2022/11/19 04:45:16;;;;;;;0.30;0.20;;;;;;;17.50;59.09;98908.59;5114239;28;20023;-69
2022/11/19 04:47:41;;;;;;;0.85;0.30;;;;;;;17.50;59.22;98909.47;5114243;28;20019;-69
2022/11/19 04:50:07;;;;;;;0.30;0.30;;;;;;;17.46;58.93;98918.47;5114451;28;20498;-70
2022/11/19 04:52:32;;;;;;;0.40;0.20;;;;;;;17.48;59.34;98910.47;5103983;28;20024;-70
2022/11/19 04:54:58;;;;;;;0.50;0.30;;;;;;;17.46;59.07;98913.19;5109297;28;20038;-70
2022/11/19 04:57:24;;;;;;;0.32;0.20;;;;;;;17.48;59.16;98915.75;5113745;28;20020;-70
2022/11/19 04:59:49;;;;;;;0.35;0.20;;;;;;;17.47;59.25;98914.06;5114042;28;20122;-70
2022/11/19 05:02:14;;;;;;;1.35;0.40;;;;;;;17.45;59.23;98912.31;5113842;28;20114;-69
2022/11/19 05:04:40;;;;;;;0.82;0.50;;;;;;;17.49;59.16;98917.44;5113892;28;20123;-70
2022/11/19 05:07:05;;;;;;;0.47;0.20;;;;;;;17.45;58.92;98917.59;5113491;28;20493;-68
2022/11/19 05:09:30;;;;;;;0.80;0.20;;;;;;;17.48;58.94;98926.31;5113958;28;20035;-69
2022/11/19 05:11:56;;;;;;;0.60;0.40;;;;;;;17.45;58.79;98917.59;5113290;28;20020;-70
2022/11/19 05:14:21;;;;;;;0.57;0.30;;;;;;;17.44;59.20;98923.81;5113455;28;20052;-70
2022/11/19 05:16:47;;;;;;;0.50;0.22;;;;;;;17.46;58.93;98926.38;5113537;28;20040;-67
2022/11/19 05:19:12;;;;;;;0.75;0.20;;;;;;;17.47;59.10;98924.59;5113330;28;20020;-69
2022/11/19 05:21:37;;;;;;;0.60;0.35;;;;;;;17.49;58.89;98922.72;5113679;28;20023;-70
2022/11/19 05:24:03;;;;;;;0.43;0.20;;;;;;;17.46;58.97;98929.00;5113388;28;20028;-70
2022/11/19 05:26:28;;;;;;;0.28;0.20;;;;;;;17.45;58.83;98932.59;5113287;28;20028;-70
2022/11/19 05:28:54;;;;;;;0.43;0.20;;;;;;;17.47;58.82;98935.16;5095200;28;20144;-70
2022/11/19 05:31:19;;;;;;;1.05;0.30;;;;;;;17.44;58.84;98931.72;5113186;28;20654;-70
2022/11/19 05:33:45;;;;;;;2.00;0.45;;;;;;;17.46;58.65;98931.66;5113079;28;20085;-69
2022/11/19 05:36:10;;;;;;;0.60;0.30;;;;;;;17.44;59.06;98928.25;5113033;28;20024;-70
2022/11/19 05:38:36;;;;;;;0.25;0.20;;;;;;;17.45;58.74;98928.16;5113095;28;20559;-69
2022/11/19 05:41:01;;;;;;;0.68;0.25;;;;;;;17.47;59.07;98928.06;5112612;28;20020;-69
2022/11/19 05:43:27;;;;;;;1.25;0.15;;;;;;;17.47;59.05;98935.16;5113042;28;20035;-70
2022/11/19 05:45:52;;;;;;;0.40;0.20;;;;;;;17.45;59.00;98938.69;5112830;28;20024;-70
2022/11/19 05:48:17;;;;;;;0.13;0.10;;;;;;;17.48;58.81;98936.84;5113212;28;20548;-69
2022/11/19 05:50:43;;;;;;;0.40;0.20;;;;;;;17.48;58.73;98936.84;5113179;28;20038;-69
2022/11/19 05:53:09;;;;;;;1.20;0.28;;;;;;;17.45;58.95;98930.78;5098394;28;20024;-70
2022/11/19 05:55:35;;;;;;;0.40;0.30;;;;;;;17.47;58.96;98930.72;5112843;28;20030;-68
2022/11/19 05:58:01;;;;;;;1.00;0.30;;;;;;;17.44;58.66;98939.66;5113020;28;20024;-70
2022/11/19 06:00:26;;;;;;;0.57;0.30;;;;;;;17.43;58.69;98932.66;5112614;28;20475;-69
2022/11/19 06:02:52;;;;;;;1.35;0.30;;;;;;;17.47;58.54;98940.44;5112924;28;20028;-71
2022/11/19 06:05:17;;;;;;;0.95;0.25;;;;;;;17.47;58.76;98943.91;5112485;28;20039;-69
2022/11/19 06:07:43;;;;;;;0.30;0.20;;;;;;;17.45;58.62;98949.25;5112857;28;20023;-69
2022/11/19 06:10:09;;;;;;;0.82;0.30;;;;;;;17.48;58.60;98944.78;5112282;28;20471;-70
2022/11/19 06:12:34;;;;;;;1.05;0.45;;;;;;;17.47;58.57;98950.97;5112588;28;20106;-70
2022/11/19 06:15:00;;;;;;;1.23;0.38;;;;;;;17.47;58.61;98946.53;5112402;28;20099;-70
2022/11/19 06:17:26;;;;;;;0.50;0.28;;;;;;;17.45;58.79;98943.97;5112293;28;20179;-69
2022/11/19 06:19:52;;;;;;;0.50;0.30;;;;;;;17.45;58.67;98949.25;5112325;28;20499;-70
2022/11/19 06:22:17;;;;;;;0.80;0.20;;;;;;;17.44;58.77;98947.56;5112499;28;20457;-70
2022/11/19 06:24:42;;;;;;;0.60;0.20;;;;;;;17.43;58.55;98953.78;5112403;28;20028;-70
2022/11/19 06:27:08;;;;;;;0.10;0.10;;;;;;;17.43;58.71;98953.78;5094072;28;20118;-70
2022/11/19 06:29:33;;;;;;;1.35;0.30;;;;;;;17.41;58.42;98955.66;5112723;28;20016;-70
2022/11/19 06:31:58;;;;;;;1.02;0.25;;;;;;;17.45;58.71;98953.69;5112426;28;20034;-70
2022/11/19 06:34:24;;;;;;;0.35;0.20;;;;;;;17.43;58.56;98964.31;5112270;28;20168;-70
2022/11/19 06:36:49;;;;;;;1.15;0.30;;;;;;;17.42;58.49;98960.00;5112506;28;20043;-70
2022/11/19 06:39:15;;;;;;;0.82;0.28;;;;;;;17.42;58.63;98965.25;5111797;28;20107;-70
2022/11/19 06:41:40;;;;;;;0.55;0.20;;;;;;;17.42;58.51;98967.91;5112454;28;20023;-71
2022/11/19 06:44:05;;;;;;;0.60;0.20;;;;;;;17.43;58.71;98966.97;5112206;28;20032;-70
2022/11/19 06:46:31;;;;;;;0.68;0.20;;;;;;;17.45;58.82;98967.72;5112120;28;20107;-70
2022/11/19 06:48:56;;;;;;;0.20;0.10;;;;;;;17.44;58.68;98971.28;5112256;28;20121;-69
2022/11/19 06:51:22;;;;;;;0.52;0.20;;;;;;;17.43;58.72;98974.88;5111777;28;20035;-70
2022/11/19 06:53:47;;;;;;;0.20;0.20;;;;;;;17.44;58.88;98967.81;5097630;28;20024;-70
2022/11/19 06:56:13;;;;;;;0.70;0.20;;;;;;;17.45;58.85;98962.44;5093852;28;20063;-69
2022/11/19 06:58:38;;;;;;;1.05;0.30;;;;;;;17.42;58.78;98970.53;5111999;28;20126;-70
2022/11/19 07:01:03;;;;;;;0.43;0.40;;;;;;;17.44;58.74;98971.28;5112108;28;20107;-70
2022/11/19 07:03:29;;;;;;;0.57;0.30;;;;;;;17.42;58.50;98980.22;5111773;28;20468;-68
2022/11/19 07:05:58;;;;;;;0.77;0.28;;;;;;;17.42;58.43;98975.81;5112318;28;20019;-69
2022/11/19 07:08:24;;;;;;;1.65;0.20;;;;;;;17.42;58.44;98991.63;5111576;28;20023;-69
2022/11/19 07:10:49;;;;;;;0.82;0.30;;;;;;;17.42;58.65;98996.91;5112389;28;20432;-69
2022/11/19 07:13:15;;;;;;;1.08;0.30;;;;;;;17.42;58.37;98993.41;5111786;28;20047;-70
2022/11/19 07:15:41;;;;;;;1.85;0.30;;;;;;;17.41;58.72;99000.50;5111774;28;20035;-70
2022/11/19 07:18:07;;;;;;;0.45;0.17;;;;;;;17.43;58.71;99005.66;5095543;28;20236;-69
2022/11/19 07:20:33;;;;;;;1.13;0.38;;;;;;;17.42;58.68;99001.31;5091391;28;20120;-70
2022/11/19 07:22:58;;;;;;;1.13;0.35;;;;;;;17.42;58.34;98994.28;5091276;28;20074;-70
2022/11/19 07:25:24;;;;;;;1.13;0.38;;;;;;;17.38;58.46;98990.09;5096632;28;20023;-70
2022/11/19 07:27:49;;;;;;;0.82;0.40;;;;;;;17.40;58.75;98998.78;5093638;28;20016;-70
2022/11/19 07:30:15;;;;;;;1.05;0.28;;;;;;;17.42;58.64;99007.47;5094158;28;20038;-70
2022/11/19 07:32:41;;;;;;;0.40;0.20;;;;;;;17.41;58.34;99011.03;5106954;28;20027;-70
2022/11/19 07:35:08;;;;;;;0.40;0.20;;;;;;;17.41;58.34;99011.03;5095245;28;20089;-69
2022/11/19 07:37:34;;;;;;;0.80;0.25;;;;;;;17.41;58.52;99011.03;5094759;28;20035;-70
2022/11/19 07:39:59;;;;;;;1.30;0.38;;;;;;;17.41;58.36;99016.31;5095234;28;20031;-70
2022/11/19 07:45:09;;;;;;;0.70;0.30;;;;;;;17.41;58.80;99020.72;5094996;28;20459;-70
2022/11/19 07:47:34;;;;;;;0.40;0.22;;;;;;;17.38;58.42;99024.38;5095053;28;20103;-69
2022/11/19 07:50:00;;;;;;;1.98;0.50;;;;;;;17.41;58.48;99039.19;5095171;28;20024;-69
2022/11/19 07:52:25;;;;;;;0.77;0.35;;;;;;;17.40;58.30;99043.63;5103510;28;20102;-68
2022/11/19 07:54:50;;;;;;;0.82;0.40;;;;;;;17.39;58.57;99044.53;5115523;28;20031;-69
2022/11/19 07:57:16;;;;;;;0.57;0.40;;;;;;;17.39;58.35;99055.09;5115521;28;20077;-69
2022/11/19 07:59:41;;;;;;;1.35;0.30;;;;;;;17.39;58.59;99055.09;5115200;28;20020;-68
2022/11/19 08:02:10;;;;;;;0.52;0.22;;;;;;;17.37;58.40;99046.41;5115053;28;20098;-69
2022/11/19 08:04:35;;;;;;;1.48;0.45;;;;;;;17.40;58.36;99054.19;5114960;28;20115;-70
2022/11/19 08:07:01;;;;;;;0.70;0.38;;;;;;;17.38;58.38;99056.03;5114437;28;20098;-70
2022/11/19 08:09:26;;;;;;;1.30;0.40;;;;;;;17.38;58.29;99056.03;5115121;28;20020;-69
2022/11/19 08:11:51;;;;;;;0.90;0.30;;;;;;;17.37;58.40;99062.25;5114646;28;20024;-69
2022/11/19 08:14:17;;;;;;;0.88;0.40;;;;;;;17.38;58.46;99063.94;5114748;28;20040;-69
2022/11/19 08:19:26;;;;;;;1.00;0.30;;;;;;;17.40;58.32;99067.38;5095581;28;20506;-70
2022/11/19 08:21:51;;;;;;;0.85;0.47;;;;;;;17.39;58.29;99064.81;5097191;28;20032;-70
2022/11/19 08:24:18;;;;;;;1.23;0.20;;;;;;;17.39;58.63;99068.28;5098268;28;20063;-68
2022/11/19 08:26:44;;;;;;;0.82;0.30;;;;;;;17.35;58.47;99069.38;5094248;28;20499;-70
2022/11/19 08:29:12;;;;;;;2.38;0.55;;;;;;;17.38;58.59;99074.50;5097060;28;20016;-70
2022/11/19 08:31:38;;;;;;;2.00;0.70;;;;;;;17.38;58.60;99071.84;5101465;28;20028;-71
2022/11/19 08:34:04;;;;;;;2.45;0.70;;;;;;;17.38;58.62;99077.13;5095431;28;20032;-69
2022/11/19 08:36:29;;;;;;;1.52;0.57;;;;;;;17.37;58.30;99083.34;5103035;28;20039;-70
2022/11/19 08:38:59;;;;;;;1.88;0.55;;;;;;;17.38;58.61;99079.75;5094024;28;20545;-70
2022/11/19 08:44:10;;;;;;;3.20;0.88;;;;;;;17.37;58.55;99091.25;5096032;28;20456;-70
2022/11/19 08:46:36;;;;;;;3.35;0.80;;;;;;;17.38;58.20;99089.47;5093751;28;20016;-70
2022/11/19 08:49:02;;;;;;;3.75;0.90;;;;;;;17.38;58.46;99095.59;5095648;28;20054;-71
2022/11/19 08:51:27;;;;;;;3.42;0.70;;;;;;;17.41;58.50;99090.16;5094277;28;20052;-70
2022/11/19 08:53:53;;;;;;;3.13;0.90;;;;;;;17.39;58.21;99089.38;5093911;28;20044;-70
2022/11/19 08:56:19;;;;;;;2.38;0.68;;;;;;;17.39;58.38;99102.56;5093446;28;20024;-69
2022/11/19 08:58:45;;;;;;;4.00;0.60;;;;;;;17.39;58.18;99091.19;5075242;28;20388;-71
2022/11/19 09:01:12;;;;;;;2.72;0.90;;;;;;;17.39;58.32;99107.84;5075300;28;20024;-68
2022/11/19 09:03:38;;;;;;;2.10;0.60;;;;;;;17.39;58.29;99101.72;5093466;28;20021;-68
2022/11/19 09:06:04;;;;;;;2.28;0.80;;;;;;;17.35;58.26;99101.03;5097501;28;20069;-70
2022/11/19 09:08:30;;;;;;;3.58;0.85;;;;;;;17.37;58.33;99112.34;5097951;28;20361;-70
2022/11/19 09:10:55;;;;;;;2.33;0.63;;;;;;;17.34;58.65;99109.84;5093382;28;20031;-70
2022/11/19 09:13:21;;;;;;;2.25;0.90;;;;;;;17.36;58.42;99120.34;5093660;28;20104;-70
2022/11/19 09:15:50;;;;;;;2.42;0.73;;;;;;;17.38;58.40;99121.13;5093026;28;20080;-70
2022/11/19 09:18:16;;;;;;;2.10;0.80;;;;;;;17.38;58.36;99114.06;5094475;28;20028;-71
2022/11/19 09:20:43;;;;;;;2.75;0.77;;;;;;;17.37;58.73;99125.53;5096296;28;20388;-68
2022/11/19 09:23:09;;;;;;;1.80;0.63;;;;;;;17.39;58.68;99128.94;5112346;27;20123;-70
2022/11/19 09:25:34;;;;;;;4.03;0.98;;;;;;;17.37;58.42;99125.53;5098396;27;20512;-71
2022/11/19 09:28:00;;;;;;;4.10;1.17;;;;;;;17.38;58.38;99132.50;5092094;28;20081;-70
2022/11/19 09:30:26;;;;;;;2.22;0.77;;;;;;;17.37;58.76;99129.94;5094623;28;20028;-70
2022/11/19 09:32:51;;;;;;;2.70;1.00;;;;;;;17.39;58.72;99128.09;5091510;28;20476;-70
2022/11/19 09:35:17;;;;;;;2.88;0.80;;;;;;;17.38;58.67;99135.16;5074759;28;20062;-69
2022/11/19 09:37:42;;;;;;;4.15;0.70;;;;;;;17.38;58.52;99129.88;5092841;28;20031;-69
2022/11/19 09:40:16;;;;;;;1.48;0.57;;;;;;;17.37;58.53;99132.59;5093038;28;20031;-70
2022/11/19 09:43:05;;;;;;;2.78;1.00;;;;;;;17.34;58.63;99125.69;5097121;28;20036;-70
2022/11/19 09:45:54;;;;;;;3.83;0.82;;;;;;;17.37;58.55;99133.44;5102204;28;20076;-70
2022/11/19 09:48:24;;;;;;;2.95;1.00;;;;;;;17.36;58.61;99134.38;5111606;28;20475;-70
2022/11/19 09:50:58;;;;;;;2.50;0.90;;;;;;;17.37;58.45;99130.81;5112666;28;20064;-70
2022/11/19 09:53:30;;;;;;;1.88;0.60;;;;;;;17.37;58.56;99133.44;5098652;28;20031;-70
2022/11/19 09:55:58;;;;;;;4.50;0.55;;;;;;;17.40;58.48;99129.81;5103165;28;20034;-70
2022/11/19 09:58:35;;;;;;;2.35;0.70;;;;;;;17.39;58.77;99128.09;5109322;28;20443;-70
2022/11/19 10:01:01;;;;;;;1.55;0.77;;;;;;;17.38;58.54;99140.44;5097063;28;20376;-70
2022/11/19 10:03:27;;;;;;;3.45;0.85;;;;;;;17.40;58.53;99141.22;5102595;28;20027;-70
2022/11/19 10:06:11;;;;;;;2.63;0.65;;;;;;;17.39;58.51;99143.94;5099962;28;20024;-70
2022/11/19 10:09:08;;;;;;;3.13;0.85;;;;;;;17.40;58.56;99149.13;5104807;28;20100;-70
2022/11/19 10:11:45;;;;;;;2.80;0.80;;;;;;;17.41;58.58;99153.47;5091517;28;20494;-70
2022/11/19 10:14:44;;;;;;;2.20;0.88;;;;;;;17.37;58.32;99154.53;5093893;28;20136;-70
2022/11/19 10:17:27;;;;;;;3.30;0.88;;;;;;;17.38;58.42;99158.88;5090670;28;20411;-71
2022/11/19 10:20:14;;;;;;;2.03;0.77;;;;;;;17.36;58.52;99163.41;5091506;28;20026;-69
2022/11/19 10:22:53;;;;;;;;;;;;;;;17.33;58.71;99166.19;5099458;28;20070;-70
2022/11/19 10:25:27;;;;;;;1.35;0.70;;;;;;;17.34;58.74;99159.13;5105155;28;19920;-69
2022/11/19 10:27:59;;;;;;;3.13;0.68;;;;;;;17.31;58.80;99163.63;5100973;28;20099;-70
2022/11/19 10:30:29;;;;;;;1.60;0.45;;;;;;;17.31;58.62;99173.31;5093027;28;20423;-69
2022/11/19 10:33:02;;;;;;;1.95;0.68;;;;;;;17.28;58.67;99176.09;5091622;28;20130;-69
2022/11/19 10:35:36;;;;;;;1.23;0.55;;;;;;;17.27;58.67;99177.03;5099245;28;20501;-71
2022/11/19 10:38:06;;;;;;;2.58;0.90;;;;;;;17.29;58.85;99180.47;5096060;28;20561;-71
2022/11/19 10:40:44;;;;;;;1.88;0.75;;;;;;;17.30;58.95;99179.53;5091900;28;20032;-71
2022/11/19 10:43:25;;;;;;;2.83;0.50;;;;;;;17.32;58.64;99180.28;5091980;28;20025;-71
2022/11/19 10:45:51;;;;;;;1.60;0.65;;;;;;;17.27;58.82;99183.16;5091756;28;20024;-71
2022/11/19 10:48:46;;;;;;;2.05;0.80;;;;;;;17.29;58.95;99180.47;5091463;28;20364;-71
2022/11/19 10:51:24;;;;;;;2.53;0.90;;;;;;;17.29;58.55;99176.03;5095317;28;20072;-71
2022/11/19 10:53:52;;;;;;;5.38;0.77;;;;;;;17.25;58.68;99182.38;5098481;28;20391;-70
2022/11/19 10:56:42;;;;;;;2.60;0.70;;;;;;;17.24;58.51;99177.19;5112161;28;20444;-71
2022/11/19 10:59:15;;;;;;;2.53;0.80;;;;;;;17.26;58.83;99170.94;5111837;28;20032;-71
2022/11/19 11:01:43;;;;;;;1.65;0.82;;;;;;;17.28;58.63;99174.31;5111897;28;20051;-71
2022/11/19 11:04:17;;;;;;;2.35;0.70;;;;;;;17.23;58.98;99175.50;5113478;28;20100;-71
2022/11/19 11:06:51;;;;;;;3.05;0.85;;;;;;;17.25;58.76;99168.34;5098249;28;20027;-71
2022/11/19 11:09:27;;;;;;;2.38;0.52;;;;;;;17.28;59.02;99166.41;5116337;28;20108;-71
2022/11/19 11:14:51;;;;;;;1.83;0.65;;;;;;;17.25;58.83;99168.34;5115716;28;20180;-71
2022/11/19 11:17:21;;;;;;;2.17;0.70;;;;;;;17.24;59.18;99161.38;5115833;28;20038;-71
2022/11/19 11:20:03;;;;;;;2.00;0.63;;;;;;;17.23;59.05;99160.50;5116084;28;20028;-71
2022/11/19 11:22:29;;;;;;;1.75;0.82;;;;;;;17.26;58.89;99159.50;5115681;28;20035;-71
2022/11/19 11:24:55;;;;;;;2.70;0.70;;;;;;;17.27;58.83;99161.22;5116117;28;20023;-71
2022/11/19 11:27:29;;;;;;;1.25;0.50;;;;;;;17.26;59.18;99156.88;5115757;28;20019;-71
2022/11/19 11:30:24;;;;;;;1.75;0.70;;;;;;;17.24;58.97;99166.66;5115773;28;20401;-72
2022/11/19 11:32:49;;;;;;;1.65;0.85;;;;;;;17.26;58.88;99170.06;5091754;28;20497;-71
2022/11/19 11:35:34;;;;;;;1.73;0.60;;;;;;;17.26;58.78;99164.78;5115813;28;20038;-71
2022/11/19 11:38:01;;;;;;;2.67;0.95;;;;;;;17.24;58.99;99161.38;5115764;28;20024;-71
2022/11/19 11:40:28;;;;;;;2.00;0.65;;;;;;;17.26;58.76;99156.88;5115697;28;20020;-71
2022/11/19 11:42:54;;;;;;;1.63;0.60;;;;;;;17.25;59.08;99155.16;5115947;28;20030;-71
2022/11/19 11:45:26;;;;;;;1.13;0.55;;;;;;;17.24;58.72;99156.94;5115360;28;20471;-71
2022/11/19 11:47:51;;;;;;;2.60;0.70;;;;;;;17.24;58.98;99148.19;5115817;28;20269;-71
2022/11/19 11:50:22;;;;;;;1.95;0.65;;;;;;;17.22;58.72;99153.53;5115699;28;20032;-70
2022/11/19 11:52:50;;;;;;;1.55;0.70;;;;;;;17.26;58.79;99148.97;5103387;28;20483;-70
2022/11/19 11:55:21;;;;;;;2.22;0.70;;;;;;;17.22;58.82;99147.41;5113758;28;20098;-71
2022/11/19 11:57:53;;;;;;;3.13;0.70;;;;;;;17.23;58.94;99146.50;5114998;28;20049;-70
2022/11/19 12:00:35;;;;;;;3.03;1.13;;;;;;;17.22;58.68;99142.13;5115365;28;20091;-71
2022/11/19 12:03:07;;;;;;;1.88;0.75;;;;;;;17.23;58.88;99143.84;5115093;28;20103;-71
2022/11/19 12:05:59;;;;;;;2.90;0.80;;;;;;;17.21;58.87;99146.56;5115295;28;20027;-71